YM Earth — 9HFT8 — position and weather

sailwx.info

Track history (hours):
 
Tides and Currents Weather Stations Pressure Air Temp Water Temp Dewpoint Dewpoint Depression Visibility Wind Speed Wind Dir Waves Ship Positions

YM Earth

Last reported at 2018-Feb-21 04:35 UTC. Time now 2018-Feb-22 19:25 UTC.
Position N 39°48' W 009°38'.

Length 105 m; draft 5 m.

Type: Ship (hazmat cat B). MMSI: 215937000.

Date/timePositionNaut miles runAvg speedWind from/ knotsBaromVisibWave heightAir tempDewpointWater temp
2018-Feb-21 04:35N 39°48' W 009°38'2 9.7
2018-Feb-21 04:25N 39°46' W 009°39'10 9.7
2018-Feb-21 03:26N 39°38' W 009°46'5 9.6
2018-Feb-21 02:57N 39°34' W 009°49'4 9.5
2018-Feb-21 02:30N 39°30' W 009°51'5 9.4
2018-Feb-21 01:57N 39°25' W 009°51'4 9.5
2018-Feb-21 01:30N 39°21' W 009°52'5 9.5
2018-Feb-21 01:00N 39°16' W 009°53'5 9.4
2018-Feb-21 00:30N 39°12' W 009°53'5 9.1
2018-Feb-21 00:00N 39°07' W 009°54'5 9.2
2018-Feb-20 23:30N 39°02' W 009°55'5 9.4
2018-Feb-20 23:00N 38°58' W 009°56'5 9.3
2018-Feb-20 22:30N 38°53' W 009°56'5 9.3
2018-Feb-20 22:00N 38°48' W 009°56'5 9.4
2018-Feb-20 21:30N 38°44' W 009°56'5 9.4
2018-Feb-20 21:00N 38°39' W 009°56'5 9.6
2018-Feb-20 20:30N 38°34' W 009°54'5 9.3
2018-Feb-20 20:00N 38°30' W 009°53'5 9.1
2018-Feb-20 19:30N 38°26' W 009°52'4 8.7
2018-Feb-20 19:00N 38°21' W 009°50'4 8.7
2018-Feb-20 18:30N 38°17' W 009°49'4 8.8
2018-Feb-20 18:00N 38°13' W 009°48'4 8.8
2018-Feb-20 17:30N 38°08' W 009°47'5 9.2
2018-Feb-20 17:00N 38°04' W 009°45'5 9.4
2018-Feb-20 16:30N 37°60' W 009°44'5 9.4
2018-Feb-20 16:00N 37°55' W 009°42'5 9.3
2018-Feb-20 15:30N 37°50' W 009°41'5 9.3
2018-Feb-20 15:00N 37°46' W 009°40'5 9.4
2018-Feb-20 14:30N 37°41' W 009°39'5 9.4
2018-Feb-20 14:00N 37°37' W 009°38'5 9.8
2018-Feb-20 13:30N 37°32' W 009°36'5 9.5
2018-Feb-20 12:59N 37°27' W 009°35'4 9.5
2018-Feb-20 12:30N 37°23' W 009°33'5 9.6
2018-Feb-20 12:00N 37°18' W 009°32'5 9.7
2018-Feb-20 11:30N 37°13' W 009°30'5 9.7
2018-Feb-20 11:00N 37°09' W 009°29'5 9.7
2018-Feb-20 10:26N 37°03' W 009°27'4 9.5
2018-Feb-20 09:59N 36°59' W 009°26'5 9.4
2018-Feb-20 09:30N 36°55' W 009°25'29 8.8
2018-Feb-20 06:11N 36°38' W 008°55'2 9.9
2018-Feb-20 06:00N 36°37' W 008°53'16310.4
2018-Feb-19 14:20N 35°58' W 005°37'310.4
2018-Feb-19 14:00N 35°58' W 005°33'5 9.8
2018-Feb-19 13:30N 35°60' W 005°27'4 8.9
2018-Feb-19 13:00N 36°01' W 005°21'4 8.7
2018-Feb-19 12:30N 36°03' W 005°17'  
2018-Feb-15 20:52N 36°30' E 013°48'3 8.9
2018-Feb-15 20:30N 36°29' E 013°52'5 8.4
2018-Feb-15 19:55N 36°27' E 013°58'3 8.2
2018-Feb-15 19:30N 36°26' E 014°02'4 7.9
2018-Feb-15 19:00N 36°25' E 014°06'4 7.8
2018-Feb-15 18:30N 36°23' E 014°11'4 8.0
2018-Feb-15 18:00N 36°22' E 014°15'4 7.7
2018-Feb-15 17:30N 36°20' E 014°20'4 7.5
2018-Feb-15 17:00N 36°19' E 014°24'4 7.2
2018-Feb-15 16:30N 36°17' E 014°28'4 7.6
2018-Feb-15 16:00N 36°16' E 014°33'4 7.1
2018-Feb-15 15:30N 36°14' E 014°36'1 2.1
2018-Feb-15 14:58N 36°13' E 014°35'4 7.6
2018-Feb-15 14:30N 36°15' E 014°39'4 7.0
2018-Feb-15 14:00N 36°14' E 014°43'4 7.0
2018-Feb-15 13:29N 36°14' E 014°47'  
Track history (hours):
 
Tides and Currents Weather Stations Pressure Air Temp Water Temp Dewpoint Dewpoint Depression Visibility Wind Speed Wind Dir Waves Ship Positions

YM Earth

Last reported at 2018-Feb-21 04:35 UTC. Time now 2018-Feb-22 19:25 UTC.
Position N 39°48' W 009°38'.

Length 105 m; draft 5 m.

Type: Ship (hazmat cat B). MMSI: 215937000.

Date/timePositionNaut miles runAvg speedWind from/ knotsBaromVisibWave heightAir tempDewpointWater temp
2018-Feb-21 04:35N 39°48' W 009°38'2 9.7
2018-Feb-21 04:25N 39°46' W 009°39'10 9.7
2018-Feb-21 03:26N 39°38' W 009°46'5 9.6
2018-Feb-21 02:57N 39°34' W 009°49'4 9.5
2018-Feb-21 02:30N 39°30' W 009°51'5 9.4
2018-Feb-21 01:57N 39°25' W 009°51'4 9.5
2018-Feb-21 01:30N 39°21' W 009°52'5 9.5
2018-Feb-21 01:00N 39°16' W 009°53'5 9.4
2018-Feb-21 00:30N 39°12' W 009°53'5 9.1
2018-Feb-21 00:00N 39°07' W 009°54'5 9.2
2018-Feb-20 23:30N 39°02' W 009°55'5 9.4
2018-Feb-20 23:00N 38°58' W 009°56'5 9.3
2018-Feb-20 22:30N 38°53' W 009°56'5 9.3
2018-Feb-20 22:00N 38°48' W 009°56'5 9.4
2018-Feb-20 21:30N 38°44' W 009°56'5 9.4
2018-Feb-20 21:00N 38°39' W 009°56'5 9.6
2018-Feb-20 20:30N 38°34' W 009°54'5 9.3
2018-Feb-20 20:00N 38°30' W 009°53'5 9.1
2018-Feb-20 19:30N 38°26' W 009°52'4 8.7
2018-Feb-20 19:00N 38°21' W 009°50'4 8.7
2018-Feb-20 18:30N 38°17' W 009°49'4 8.8
2018-Feb-20 18:00N 38°13' W 009°48'4 8.8
2018-Feb-20 17:30N 38°08' W 009°47'5 9.2
2018-Feb-20 17:00N 38°04' W 009°45'5 9.4
2018-Feb-20 16:30N 37°60' W 009°44'5 9.4
2018-Feb-20 16:00N 37°55' W 009°42'5 9.3
2018-Feb-20 15:30N 37°50' W 009°41'5 9.3
2018-Feb-20 15:00N 37°46' W 009°40'5 9.4
2018-Feb-20 14:30N 37°41' W 009°39'5 9.4
2018-Feb-20 14:00N 37°37' W 009°38'5 9.8
2018-Feb-20 13:30N 37°32' W 009°36'5 9.5
2018-Feb-20 12:59N 37°27' W 009°35'4 9.5
2018-Feb-20 12:30N 37°23' W 009°33'5 9.6
2018-Feb-20 12:00N 37°18' W 009°32'5 9.7
2018-Feb-20 11:30N 37°13' W 009°30'5 9.7
2018-Feb-20 11:00N 37°09' W 009°29'5 9.7
2018-Feb-20 10:26N 37°03' W 009°27'4 9.5
2018-Feb-20 09:59N 36°59' W 009°26'5 9.4
2018-Feb-20 09:30N 36°55' W 009°25'29 8.8
2018-Feb-20 06:11N 36°38' W 008°55'2 9.9
2018-Feb-20 06:00N 36°37' W 008°53'16310.4
2018-Feb-19 14:20N 35°58' W 005°37'310.4
2018-Feb-19 14:00N 35°58' W 005°33'5 9.8
2018-Feb-19 13:30N 35°60' W 005°27'4 8.9
2018-Feb-19 13:00N 36°01' W 005°21'4 8.7
2018-Feb-19 12:30N 36°03' W 005°17'  
2018-Feb-15 20:52N 36°30' E 013°48'3 8.9
2018-Feb-15 20:30N 36°29' E 013°52'5 8.4
2018-Feb-15 19:55N 36°27' E 013°58'3 8.2
2018-Feb-15 19:30N 36°26' E 014°02'4 7.9
2018-Feb-15 19:00N 36°25' E 014°06'4 7.8
2018-Feb-15 18:30N 36°23' E 014°11'4 8.0
2018-Feb-15 18:00N 36°22' E 014°15'4 7.7
2018-Feb-15 17:30N 36°20' E 014°20'4 7.5
2018-Feb-15 17:00N 36°19' E 014°24'4 7.2
2018-Feb-15 16:30N 36°17' E 014°28'4 7.6
2018-Feb-15 16:00N 36°16' E 014°33'4 7.1
2018-Feb-15 15:30N 36°14' E 014°36'1 2.1
2018-Feb-15 14:58N 36°13' E 014°35'4 7.6
2018-Feb-15 14:30N 36°15' E 014°39'4 7.0
2018-Feb-15 14:00N 36°14' E 014°43'4 7.0
2018-Feb-15 13:29N 36°14' E 014°47'  

Dump ship's entire track history